createdAt,value
2023-05-24T00:02:14.295Z,10.76
2023-05-24T00:04:42.362Z,10.78
2023-05-24T00:07:09.583Z,10.69
2023-05-24T00:09:36.642Z,10.59
2023-05-24T00:12:03.756Z,10.60
2023-05-24T00:14:30.889Z,10.63
2023-05-24T00:16:58.200Z,10.74
2023-05-24T00:19:25.947Z,10.49
2023-05-24T00:21:53.044Z,10.42
2023-05-24T00:24:20.035Z,10.34
2023-05-24T00:26:47.253Z,10.37
2023-05-24T00:29:14.497Z,10.43
2023-05-24T00:31:41.998Z,10.63
2023-05-24T00:34:10.253Z,10.66
2023-05-24T00:36:38.454Z,10.68
2023-05-24T00:39:06.073Z,10.68
2023-05-24T00:41:33.590Z,10.74
2023-05-24T00:44:00.699Z,10.76
2023-05-24T00:46:32.188Z,10.75
2023-05-24T00:49:00.587Z,10.83
2023-05-24T00:51:28.544Z,10.76
2023-05-24T00:53:56.430Z,10.76
2023-05-24T00:56:23.808Z,10.97
2023-05-24T00:58:54.889Z,11.05
2023-05-24T01:01:26.428Z,11.03
2023-05-24T01:03:54.497Z,10.98
2023-05-24T01:06:22.269Z,10.95
2023-05-24T01:09:01.655Z,10.96
2023-05-24T01:12:06.381Z,11.01
2023-05-24T01:14:39.463Z,10.94
2023-05-24T01:17:10.045Z,10.88
2023-05-24T01:19:49.205Z,10.86
2023-05-24T01:22:45.220Z,10.84
2023-05-24T01:25:37.408Z,10.71
2023-05-24T01:28:06.461Z,10.61
2023-05-24T01:30:34.516Z,10.62
2023-05-24T01:33:01.802Z,10.60
2023-05-24T01:35:28.869Z,10.78
2023-05-24T01:37:55.933Z,10.89
2023-05-24T01:40:23.143Z,11.08
2023-05-24T01:43:08.350Z,11.21
2023-05-24T01:45:38.352Z,11.37
2023-05-24T01:48:18.967Z,11.48
2023-05-24T01:50:52.637Z,11.58
2023-05-24T01:53:26.375Z,11.64
2023-05-24T01:55:57.425Z,11.66
2023-05-24T01:58:26.497Z,11.69
2023-05-24T02:00:53.967Z,11.77
2023-05-24T02:03:21.938Z,11.78
2023-05-24T02:05:49.068Z,11.78
2023-05-24T02:08:16.164Z,11.78
2023-05-24T02:10:43.492Z,11.78
2023-05-24T02:13:11.616Z,11.83
2023-05-24T02:15:38.717Z,11.85
2023-05-24T02:18:08.273Z,11.94
2023-05-24T02:20:39.062Z,12.00
2023-05-24T02:23:06.940Z,12.06
2023-05-24T02:25:34.154Z,12.13
2023-05-24T02:28:01.433Z,12.16
2023-05-24T02:30:28.571Z,12.11
2023-05-24T02:32:56.309Z,12.10
2023-05-24T02:35:23.457Z,12.14
2023-05-24T02:37:50.490Z,12.19
2023-05-24T02:40:17.718Z,12.26
2023-05-24T02:42:44.827Z,12.25
2023-05-24T02:45:11.865Z,12.24
2023-05-24T02:47:38.971Z,12.33
2023-05-24T02:50:07.142Z,12.36
2023-05-24T02:52:34.181Z,12.39
2023-05-24T02:55:01.347Z,12.37
2023-05-24T02:57:28.988Z,12.33
2023-05-24T02:59:56.317Z,12.40
2023-05-24T03:02:23.559Z,12.45
2023-05-24T03:04:50.619Z,12.47
2023-05-24T03:07:17.717Z,12.47
2023-05-24T03:09:44.887Z,12.51
2023-05-24T03:12:12.954Z,12.56
2023-05-24T03:14:40.181Z,12.59
2023-05-24T03:17:07.290Z,12.54
2023-05-24T03:19:35.277Z,12.52
2023-05-24T03:22:02.369Z,12.58
2023-05-24T03:24:29.410Z,12.69
2023-05-24T03:26:57.550Z,12.73
2023-05-24T03:29:24.714Z,12.70
2023-05-24T03:31:53.232Z,12.71
2023-05-24T03:34:20.577Z,12.84
2023-05-24T03:36:47.630Z,12.92
2023-05-24T03:39:14.642Z,12.89
2023-05-24T03:42:00.202Z,12.90
2023-05-24T03:44:27.338Z,12.94
2023-05-24T03:46:54.370Z,12.97
2023-05-24T03:49:21.400Z,13.03
2023-05-24T03:51:49.324Z,13.05
2023-05-24T03:54:18.063Z,13.10
2023-05-24T03:56:45.201Z,13.15
2023-05-24T03:59:12.204Z,13.17
2023-05-24T04:01:39.646Z,13.23
2023-05-24T04:04:06.760Z,13.29
2023-05-24T04:06:33.824Z,13.41
2023-05-24T04:09:02.111Z,13.46
2023-05-24T04:11:29.937Z,13.54
2023-05-24T04:14:00.692Z,13.66
2023-05-24T04:16:29.390Z,13.75
2023-05-24T04:18:58.244Z,13.89
2023-05-24T04:21:25.418Z,13.90
2023-05-24T04:23:54.333Z,14.02
2023-05-24T04:26:21.468Z,14.20
2023-05-24T04:28:48.873Z,14.32
2023-05-24T04:31:16.571Z,14.42
2023-05-24T04:33:43.954Z,14.43
2023-05-24T04:36:12.145Z,14.57
2023-05-24T04:38:41.222Z,14.70
2023-05-24T04:41:08.409Z,14.76
2023-05-24T04:43:35.493Z,14.73
2023-05-24T04:46:02.742Z,14.71
2023-05-24T04:48:30.265Z,14.75
2023-05-24T04:51:01.207Z,14.77
2023-05-24T04:53:28.238Z,14.71
2023-05-24T04:55:55.312Z,14.60
2023-05-24T04:58:22.424Z,14.61
2023-05-24T05:00:49.554Z,14.66
2023-05-24T05:03:16.794Z,14.68
2023-05-24T05:05:44.646Z,14.60
2023-05-24T05:08:11.648Z,14.55
2023-05-24T05:10:38.703Z,14.62
2023-05-24T05:13:06.073Z,14.68
2023-05-24T05:15:33.557Z,14.62
2023-05-24T05:18:00.848Z,14.63
2023-05-24T05:20:27.934Z,14.68
2023-05-24T05:22:54.989Z,14.82
2023-05-24T05:25:22.234Z,14.82
2023-05-24T05:27:49.335Z,14.79
2023-05-24T05:30:16.564Z,14.82
2023-05-24T05:32:43.935Z,14.85
2023-05-24T05:35:11.211Z,14.98
2023-05-24T05:37:38.262Z,14.97
2023-05-24T05:40:05.662Z,14.97
2023-05-24T05:42:32.761Z,15.05
2023-05-24T05:44:59.838Z,15.22
2023-05-24T05:47:26.970Z,15.19
2023-05-24T05:49:54.066Z,15.17
2023-05-24T05:52:21.209Z,15.19
2023-05-24T05:54:48.240Z,15.22
2023-05-24T05:57:16.474Z,15.30
2023-05-24T05:59:43.561Z,15.27
2023-05-24T06:02:12.936Z,15.24
2023-05-24T06:04:40.002Z,15.44
2023-05-24T06:07:07.137Z,15.46
2023-05-24T06:09:34.261Z,15.44
2023-05-24T06:12:01.417Z,15.45
2023-05-24T06:14:28.469Z,15.47
2023-05-24T06:16:56.836Z,15.50
2023-05-24T06:19:25.264Z,15.58
2023-05-24T06:21:52.306Z,15.75
2023-05-24T06:24:22.961Z,15.86
2023-05-24T06:26:53.179Z,16.10
2023-05-24T06:29:22.117Z,16.06
2023-05-24T06:31:50.388Z,16.10
2023-05-24T06:34:21.537Z,16.32
2023-05-24T06:36:51.613Z,16.38
2023-05-24T06:39:19.156Z,16.37
2023-05-24T06:41:47.408Z,16.37
2023-05-24T06:44:14.793Z,16.42
2023-05-24T06:46:42.113Z,16.77
2023-05-24T06:49:09.268Z,17.00
2023-05-24T06:51:38.121Z,16.99
2023-05-24T06:54:05.220Z,17.01
2023-05-24T06:56:32.239Z,17.49
2023-05-24T06:59:00.266Z,17.76
2023-05-24T07:01:27.784Z,17.59
2023-05-24T07:03:55.253Z,17.54
2023-05-24T07:06:22.517Z,18.20
2023-05-24T07:08:49.520Z,17.95
2023-05-24T07:11:16.792Z,18.38
2023-05-24T07:13:43.877Z,17.96
2023-05-24T07:16:11.950Z,18.28
2023-05-24T07:18:41.892Z,18.41
2023-05-24T07:21:09.177Z,18.43
2023-05-24T07:23:37.157Z,18.31
2023-05-24T07:26:04.939Z,18.13
2023-05-24T07:28:32.877Z,18.37
2023-05-24T07:31:00.255Z,18.43
2023-05-24T07:33:27.366Z,18.94
2023-05-24T07:35:54.862Z,19.41
2023-05-24T07:38:22.087Z,18.74
2023-05-24T07:40:49.279Z,18.98
2023-05-24T07:43:16.370Z,19.50
2023-05-24T07:45:43.596Z,19.65
2023-05-24T07:48:11.056Z,19.96
2023-05-24T07:50:38.708Z,19.84
2023-05-24T07:53:06.452Z,20.50
2023-05-24T07:55:33.772Z,20.73
2023-05-24T07:58:00.885Z,21.10
2023-05-24T08:00:27.924Z,20.72
2023-05-24T08:02:55.025Z,20.63
2023-05-24T08:05:22.327Z,21.04
2023-05-24T08:07:49.386Z,21.08
2023-05-24T08:10:16.910Z,21.55
2023-05-24T08:12:43.976Z,20.20
2023-05-24T08:15:11.230Z,20.41
2023-05-24T08:17:39.368Z,20.65
2023-05-24T08:20:09.116Z,21.17
2023-05-24T08:22:37.586Z,21.30
2023-05-24T08:25:06.368Z,21.32
2023-05-24T08:27:33.802Z,21.37
2023-05-24T08:30:02.090Z,21.00
2023-05-24T08:32:29.129Z,21.08
2023-05-24T08:35:03.744Z,21.69
2023-05-24T08:37:43.969Z,21.67
2023-05-24T08:40:11.173Z,22.19
2023-05-24T08:42:39.885Z,21.90
2023-05-24T08:45:12.506Z,22.45
2023-05-24T08:47:40.847Z,22.80
2023-05-24T08:50:08.930Z,22.81
2023-05-24T08:52:36.598Z,22.53
2023-05-24T08:55:07.045Z,22.39
2023-05-24T08:57:35.097Z,22.94
2023-05-24T09:00:02.236Z,21.85
2023-05-24T09:02:30.504Z,22.29
2023-05-24T09:04:58.729Z,22.65
2023-05-24T09:07:26.474Z,22.89
2023-05-24T09:10:05.414Z,22.69
2023-05-24T09:12:38.108Z,22.60
2023-05-24T09:15:07.793Z,22.11
2023-05-24T09:17:37.053Z,22.00
2023-05-24T09:20:07.342Z,21.63
2023-05-24T09:22:40.799Z,21.27
2023-05-24T09:25:10.041Z,21.07
2023-05-24T09:27:37.859Z,21.03
2023-05-24T09:30:10.613Z,21.17
2023-05-24T09:32:38.221Z,20.95
2023-05-24T09:35:09.711Z,20.62
2023-05-24T09:37:39.003Z,20.61
2023-05-24T09:40:11.081Z,20.47
2023-05-24T09:42:38.564Z,20.59
2023-05-24T10:18:10.609Z,18.34
2023-05-24T10:20:41.709Z,18.66
2023-05-24T10:23:11.132Z,19.06
2023-05-24T10:25:44.986Z,19.45
2023-05-24T10:28:15.343Z,19.60
2023-05-24T10:31:00.733Z,19.55
2023-05-24T10:33:28.803Z,19.68
2023-05-24T10:35:57.268Z,19.41
2023-05-24T10:38:25.121Z,19.76
2023-05-24T10:40:52.586Z,20.26
2023-05-24T10:43:21.587Z,20.65
2023-05-24T10:45:50.130Z,21.12
2023-05-24T10:48:17.868Z,21.53
2023-05-24T10:50:45.294Z,21.79
2023-05-24T10:53:17.706Z,21.75
2023-05-24T10:56:01.230Z,22.17
2023-05-24T10:58:46.433Z,22.23
2023-05-24T11:01:29.754Z,21.93
2023-05-24T11:04:18.434Z,22.32
2023-05-24T11:06:57.136Z,22.15
2023-05-24T11:09:25.569Z,22.62
2023-05-24T11:12:00.328Z,22.59
2023-05-24T11:14:29.398Z,22.88
2023-05-24T11:16:56.953Z,22.79
2023-05-24T11:19:29.828Z,22.70
2023-05-24T11:22:00.724Z,22.74
2023-05-24T11:24:29.238Z,22.41
2023-05-24T11:26:57.277Z,21.72
2023-05-24T11:29:24.482Z,21.38
2023-05-24T11:31:54.455Z,21.41
2023-05-24T11:34:22.279Z,21.15
2023-05-24T11:36:50.184Z,21.37
2023-05-24T11:39:18.132Z,20.73
2023-05-24T11:41:45.322Z,20.51
2023-05-24T11:44:12.499Z,20.39
2023-05-24T11:46:40.716Z,20.54
2023-05-24T11:49:12.556Z,20.54
2023-05-24T11:51:39.656Z,20.45
2023-05-24T11:54:06.683Z,20.58
2023-05-24T11:56:34.217Z,20.91
2023-05-24T11:59:15.635Z,21.52
2023-05-24T12:01:43.049Z,21.65
2023-05-24T12:04:10.853Z,22.23
2023-05-24T12:06:44.754Z,22.18
2023-05-24T12:09:15.729Z,21.99
2023-05-24T12:11:48.314Z,21.93
2023-05-24T12:14:16.959Z,21.91
2023-05-24T12:16:45.604Z,21.83
2023-05-24T12:19:31.389Z,21.90
2023-05-24T12:22:00.747Z,22.45
2023-05-24T12:24:28.662Z,22.59
2023-05-24T12:27:08.094Z,22.97
2023-05-24T12:29:37.988Z,23.87
2023-05-24T12:32:05.991Z,24.78
2023-05-24T12:34:33.142Z,25.12
2023-05-24T12:37:00.247Z,25.58
2023-05-24T12:39:35.296Z,25.96
2023-05-24T12:42:04.478Z,26.09
2023-05-24T12:44:35.699Z,26.64
2023-05-24T12:47:05.312Z,25.92
2023-05-24T12:49:32.687Z,25.44
2023-05-24T12:52:00.054Z,25.18
2023-05-24T12:54:28.912Z,24.71
2023-05-24T12:56:57.812Z,24.64
2023-05-24T12:59:26.483Z,24.30
2023-05-24T13:01:53.965Z,24.82
2023-05-24T13:04:24.561Z,25.22
2023-05-24T13:06:51.679Z,25.53
2023-05-24T13:09:21.718Z,25.15
2023-05-24T13:11:49.315Z,24.90
2023-05-24T13:14:17.041Z,24.51
2023-05-24T13:16:44.587Z,24.27
2023-05-24T13:19:12.625Z,24.27
2023-05-24T13:21:40.491Z,24.65
2023-05-24T13:24:07.933Z,24.31
2023-05-24T13:26:37.906Z,24.30
2023-05-24T13:31:41.251Z,24.62
2023-05-24T13:34:09.357Z,24.38
2023-05-24T13:36:38.120Z,24.93
2023-05-24T13:39:15.625Z,25.52
2023-05-24T13:41:44.477Z,26.37
2023-05-24T13:44:13.296Z,27.61
2023-05-24T13:46:41.039Z,27.46
2023-05-24T13:49:09.483Z,28.25
2023-05-24T13:51:37.421Z,29.52
2023-05-24T13:54:07.430Z,29.42
2023-05-24T13:56:35.711Z,29.25
2023-05-24T13:59:04.626Z,29.30
2023-05-24T14:01:32.646Z,29.06
2023-05-24T14:04:02.869Z,29.50
2023-05-24T14:06:30.164Z,31.29
2023-05-24T14:08:57.288Z,31.01
2023-05-24T14:11:25.657Z,30.55
2023-05-24T14:16:24.198Z,27.14
2023-05-24T14:18:51.892Z,26.28
2023-05-24T14:21:21.868Z,25.55
2023-05-24T14:23:50.239Z,25.43
2023-05-24T14:26:18.942Z,24.54
2023-05-24T14:28:46.319Z,23.24
2023-05-24T14:31:13.450Z,23.54
2023-05-24T14:33:40.507Z,23.10
2023-05-24T14:36:08.178Z,22.99
2023-05-24T14:38:35.321Z,22.93
2023-05-24T14:41:03.026Z,22.57
2023-05-24T14:43:30.087Z,22.19
2023-05-24T14:45:57.178Z,22.10
2023-05-24T14:48:24.263Z,22.36
2023-05-24T14:50:51.483Z,22.03
2023-05-24T14:53:18.593Z,22.20
2023-05-24T14:55:45.881Z,22.20
2023-05-24T14:58:13.335Z,21.78
2023-05-24T15:00:41.807Z,21.57
2023-05-24T15:03:09.454Z,21.74
2023-05-24T15:05:37.226Z,21.65
2023-05-24T15:08:05.772Z,21.89
2023-05-24T15:10:33.598Z,21.65
2023-05-24T15:13:01.669Z,21.37
2023-05-24T15:15:28.900Z,21.55
2023-05-24T15:17:57.382Z,21.73
2023-05-24T15:22:52.585Z,21.38
2023-05-24T15:25:19.742Z,21.32
2023-05-24T15:27:47.768Z,21.16
2023-05-24T15:30:15.137Z,21.43
2023-05-24T15:32:42.194Z,21.30
2023-05-24T15:35:09.669Z,21.35
2023-05-24T15:37:36.716Z,21.35
2023-05-24T15:40:04.109Z,21.35
2023-05-24T15:42:32.339Z,21.31
2023-05-24T15:44:59.411Z,20.59
2023-05-24T15:47:29.306Z,20.77
2023-05-24T15:49:57.193Z,20.96
2023-05-24T15:52:24.408Z,21.19
2023-05-24T15:54:51.524Z,20.98
2023-05-24T15:57:18.727Z,20.66
2023-05-24T15:59:45.757Z,20.53
2023-05-24T16:02:12.865Z,20.62
2023-05-24T16:04:40.005Z,20.73
2023-05-24T16:07:07.417Z,20.49
2023-05-24T16:09:34.657Z,20.44
2023-05-24T16:12:01.801Z,20.44
2023-05-24T16:14:29.987Z,20.67
2023-05-24T16:16:59.002Z,20.61
2023-05-24T16:19:26.931Z,20.34
2023-05-24T16:21:54.052Z,20.19
2023-05-24T16:24:21.135Z,20.12
2023-05-24T16:26:48.174Z,20.44
2023-05-24T16:29:17.014Z,20.31
2023-05-24T16:31:44.115Z,20.32
2023-05-24T16:34:11.277Z,20.30
2023-05-24T16:36:38.416Z,20.47
2023-05-24T16:39:05.763Z,20.37
2023-05-24T16:41:37.806Z,20.37
2023-05-24T16:44:04.990Z,20.20
2023-05-24T16:46:32.772Z,20.17
2023-05-24T16:49:00.669Z,20.21
2023-05-24T16:51:27.692Z,19.89
2023-05-24T16:53:54.781Z,20.08
2023-05-24T16:56:23.284Z,20.07
2023-05-24T16:58:50.385Z,20.09
2023-05-24T17:01:17.608Z,19.84
2023-05-24T17:03:44.767Z,19.81
2023-05-24T17:06:11.969Z,19.84
2023-05-24T17:08:39.265Z,19.79
2023-05-24T17:11:06.766Z,19.12
2023-05-24T17:13:34.299Z,19.51
2023-05-24T17:16:03.808Z,19.31
2023-05-24T17:18:31.246Z,19.30
2023-05-24T17:21:00.207Z,19.33
2023-05-24T17:23:28.804Z,18.79
2023-05-24T17:25:55.899Z,18.94
2023-05-24T17:28:27.628Z,19.18
2023-05-24T17:30:59.349Z,19.07
2023-05-24T17:33:28.682Z,18.27
2023-05-24T17:35:56.816Z,17.90
2023-05-24T17:38:25.377Z,18.14
2023-05-24T17:40:59.776Z,17.95
2023-05-24T17:43:29.357Z,17.65
2023-05-24T17:46:04.296Z,17.29
2023-05-24T17:48:38.902Z,17.30
2023-05-24T17:51:07.908Z,17.27
2023-05-24T17:53:36.448Z,17.37
2023-05-24T17:56:05.117Z,17.18
2023-05-24T17:58:36.309Z,16.63
2023-05-24T18:01:05.586Z,16.80
2023-05-24T18:03:37.399Z,17.00
2023-05-24T18:06:07.099Z,17.13
2023-05-24T18:08:37.387Z,16.73
2023-05-24T18:11:08.636Z,16.33
2023-05-24T18:13:40.584Z,16.10
2023-05-24T18:16:10.486Z,15.94
2023-05-24T18:18:41.093Z,15.60
2023-05-24T18:21:09.696Z,15.28
2023-05-24T18:23:40.131Z,15.37
2023-05-24T18:26:09.400Z,15.36
2023-05-24T18:28:37.903Z,15.28
2023-05-24T18:31:08.540Z,14.94
2023-05-24T18:33:36.081Z,14.89
2023-05-24T18:36:06.905Z,14.98
2023-05-24T18:38:35.028Z,15.10
2023-05-24T18:41:05.904Z,15.19
2023-05-24T18:43:33.349Z,14.84
2023-05-24T18:46:00.501Z,14.79
2023-05-24T18:48:27.642Z,14.81
2023-05-24T18:50:55.087Z,14.89
2023-05-24T18:53:22.169Z,14.54
2023-05-24T18:55:49.275Z,14.45
2023-05-24T18:58:16.264Z,14.58
2023-05-24T19:00:43.537Z,14.76
2023-05-24T19:03:13.804Z,14.82
2023-05-24T19:05:43.510Z,14.77
2023-05-24T19:08:11.332Z,14.83
2023-05-24T19:10:38.453Z,14.92
2023-05-24T19:13:06.765Z,14.99
2023-05-24T19:15:35.814Z,15.00
2023-05-24T19:18:03.494Z,14.99
2023-05-24T19:20:30.660Z,15.16
2023-05-24T19:22:57.869Z,15.26
2023-05-24T19:25:24.888Z,15.26
2023-05-24T19:30:22.320Z,14.96
2023-05-24T19:32:49.436Z,15.01
2023-05-24T19:35:16.576Z,15.08
2023-05-24T19:37:43.886Z,14.82
2023-05-24T19:40:11.488Z,14.97
2023-05-24T19:42:38.536Z,15.37
2023-05-24T19:45:06.290Z,15.66
2023-05-24T19:47:33.298Z,15.90
2023-05-24T19:50:00.566Z,15.20
2023-05-24T19:52:27.609Z,14.95
2023-05-24T19:54:54.722Z,15.40
2023-05-24T19:57:21.758Z,15.52
2023-05-24T19:59:48.896Z,15.77
2023-05-24T20:02:15.923Z,15.69
2023-05-24T20:04:44.150Z,15.79
2023-05-24T20:07:11.611Z,15.82
2023-05-24T20:09:39.008Z,15.77
2023-05-24T20:12:06.389Z,16.00
2023-05-24T20:14:33.433Z,16.01
2023-05-24T20:17:01.310Z,15.86
2023-05-24T20:19:29.455Z,16.05
2023-05-24T20:21:57.228Z,16.09
2023-05-24T20:24:24.254Z,16.08
2023-05-24T20:26:51.311Z,15.84
2023-05-24T20:29:18.409Z,16.08
2023-05-24T20:31:47.235Z,16.04
2023-05-24T20:34:14.422Z,16.09
2023-05-24T20:36:43.549Z,15.81
2023-05-24T20:39:11.012Z,15.47
2023-05-24T20:41:38.004Z,15.41
2023-05-24T20:44:05.063Z,15.71
2023-05-24T20:46:32.165Z,14.95
2023-05-24T20:48:59.572Z,14.93
2023-05-24T20:51:26.574Z,15.18
2023-05-24T20:53:53.622Z,15.24
2023-05-24T20:56:23.602Z,14.86
2023-05-24T20:58:53.191Z,14.15
2023-05-24T21:01:21.308Z,13.95
2023-05-24T21:03:48.511Z,13.90
2023-05-24T21:06:15.629Z,13.71
2023-05-24T21:08:43.550Z,13.23
2023-05-24T21:11:10.652Z,13.05
2023-05-24T21:13:37.891Z,13.08
2023-05-24T21:16:05.056Z,13.05
2023-05-24T21:18:33.469Z,12.85
2023-05-24T21:21:00.634Z,12.63
2023-05-24T21:23:27.655Z,12.53
2023-05-24T21:25:54.669Z,12.32
2023-05-24T21:28:21.755Z,12.25
2023-05-24T21:30:48.934Z,12.29
2023-05-24T21:33:16.687Z,12.38
2023-05-24T21:35:44.081Z,12.46
2023-05-24T21:38:11.375Z,12.63
2023-05-24T21:40:38.436Z,12.82
2023-05-24T21:43:05.596Z,12.94
2023-05-24T21:45:32.621Z,13.01
2023-05-24T21:47:59.715Z,13.05
2023-05-24T21:50:26.771Z,13.17
2023-05-24T21:52:53.845Z,13.18
2023-05-24T21:55:21.073Z,13.03
2023-05-24T21:57:48.135Z,12.94
2023-05-24T22:00:16.914Z,12.99
2023-05-24T22:02:44.064Z,13.12
2023-05-24T22:05:11.323Z,13.19
2023-05-24T22:07:38.584Z,13.18
2023-05-24T22:10:07.471Z,12.96
2023-05-24T22:12:35.234Z,12.81
2023-05-24T22:15:02.687Z,12.90
2023-05-24T22:17:32.721Z,12.88
2023-05-24T22:20:04.351Z,12.86
2023-05-24T22:22:31.540Z,12.63
2023-05-24T22:25:00.340Z,12.53
2023-05-24T22:27:27.580Z,12.54
2023-05-24T22:29:55.521Z,12.60
2023-05-24T22:32:22.866Z,12.69
2023-05-24T22:34:49.902Z,12.67
2023-05-24T22:37:17.122Z,12.55
2023-05-24T22:39:45.160Z,12.47
2023-05-24T22:42:12.220Z,12.54
2023-05-24T22:44:39.254Z,12.58
2023-05-24T22:47:06.342Z,12.52
2023-05-24T22:49:34.388Z,12.39
2023-05-24T22:52:01.855Z,12.36
2023-05-24T22:54:28.958Z,12.45
2023-05-24T22:56:56.886Z,12.50
2023-05-24T22:59:23.980Z,12.66
2023-05-24T23:01:51.260Z,12.77
2023-05-24T23:04:21.097Z,12.92
2023-05-24T23:06:53.370Z,13.02
2023-05-24T23:09:35.025Z,13.00
2023-05-24T23:12:08.477Z,12.85
2023-05-24T23:14:38.688Z,12.67
2023-05-24T23:17:06.852Z,12.61
2023-05-24T23:19:34.351Z,12.76
2023-05-24T23:22:03.559Z,12.80
2023-05-24T23:24:31.442Z,12.94
2023-05-24T23:26:58.491Z,12.85
2023-05-24T23:29:25.632Z,12.85
2023-05-24T23:31:52.745Z,12.92
2023-05-24T23:34:19.737Z,12.92
2023-05-24T23:36:46.744Z,12.89
2023-05-24T23:39:13.855Z,12.78
2023-05-24T23:41:40.907Z,12.72
2023-05-24T23:44:07.920Z,12.68
2023-05-24T23:46:36.121Z,12.67
2023-05-24T23:49:03.253Z,12.85
2023-05-24T23:51:33.327Z,12.78
2023-05-24T23:54:01.333Z,12.67
2023-05-24T23:56:28.423Z,12.70
2023-05-24T23:58:56.040Z,12.81
